createdAt,value
2022-07-27T00:00:17.096Z,16.1
2022-07-27T00:01:18.556Z,16.1
2022-07-27T00:02:16.709Z,16.1
2022-07-27T00:03:17.213Z,16
2022-07-27T00:04:15.654Z,16
2022-07-27T00:05:12.843Z,16
2022-07-27T00:06:13.620Z,16.1
2022-07-27T00:07:17.580Z,16.1
2022-07-27T00:08:13.684Z,16.1
2022-07-27T00:09:20.606Z,16
2022-07-27T00:10:12.480Z,16
2022-07-27T00:11:17.328Z,15.9
2022-07-27T00:12:18.356Z,15.9
2022-07-27T00:13:14.992Z,15.9
2022-07-27T00:14:15.666Z,15.9
2022-07-27T00:15:16.845Z,16.1
2022-07-27T00:16:15.080Z,16.1
2022-07-27T00:17:16.481Z,16.1
2022-07-27T00:18:14.214Z,16.1
2022-07-27T00:19:19.481Z,15.9
2022-07-27T00:20:26.966Z,15.9
2022-07-27T00:21:06.755Z,15.9
2022-07-27T00:22:17.939Z,15.9
2022-07-27T00:23:14.940Z,15.9
2022-07-27T00:24:14.935Z,15.8
2022-07-27T00:25:18.542Z,15.7
2022-07-27T00:26:19.195Z,15.7
2022-07-27T00:27:18.429Z,15.8
2022-07-27T00:28:09.838Z,15.8
2022-07-27T00:29:19.809Z,15.8
2022-07-27T00:30:16.140Z,15.8
2022-07-27T00:31:14.299Z,15.8
2022-07-27T00:32:17.056Z,15.6
2022-07-27T00:33:21.645Z,15.6
2022-07-27T00:34:15.090Z,15.5
2022-07-27T00:35:18.078Z,15.5
2022-07-27T00:36:16.826Z,15.6
2022-07-27T00:37:18.843Z,15.6
2022-07-27T00:38:07.242Z,15.6
2022-07-27T00:39:24.096Z,15.7
2022-07-27T00:40:07.880Z,15.8
2022-07-27T00:41:14.756Z,15.8
2022-07-27T00:42:07.851Z,15.8
2022-07-27T00:43:20.998Z,15.8
2022-07-27T00:44:13.496Z,15.8
2022-07-27T00:45:16.880Z,15.8
2022-07-27T00:46:16.920Z,15.8
2022-07-27T00:47:17.557Z,15.8
2022-07-27T00:48:15.135Z,15.7
2022-07-27T00:49:18.882Z,15.6
2022-07-27T00:50:13.909Z,15.6
2022-07-27T00:51:16.447Z,15.6
2022-07-27T00:52:16.278Z,15.6
2022-07-27T00:53:15.421Z,15.6
2022-07-27T00:54:15.120Z,15.6
2022-07-27T00:55:15.934Z,15.6
2022-07-27T00:56:17.631Z,15.6
2022-07-27T00:57:15.986Z,15.6
2022-07-27T00:58:22.433Z,15.5
2022-07-27T00:59:12.345Z,15.4
2022-07-27T01:00:15.023Z,15.4
2022-07-27T01:01:18.559Z,15.4
2022-07-27T01:02:25.204Z,15.4
2022-07-27T01:03:29.588Z,15.4
2022-07-27T01:04:16.450Z,15.4
2022-07-27T01:05:17.534Z,15.4
2022-07-27T01:06:23.266Z,15.4
2022-07-27T01:07:15.309Z,15.3
2022-07-27T01:08:13.403Z,15.4
2022-07-27T01:09:17.788Z,15.4
2022-07-27T01:10:08.774Z,15.4
2022-07-27T01:11:18.381Z,15.4
2022-07-27T01:12:15.996Z,15.4
2022-07-27T01:13:22.948Z,15.5
2022-07-27T01:14:14.554Z,15.6
2022-07-27T01:15:17.352Z,15.6
2022-07-27T01:16:16.592Z,15.6
2022-07-27T01:17:14.605Z,15.6
2022-07-27T01:18:18.972Z,15.8
2022-07-27T01:19:15.177Z,15.8
2022-07-27T01:20:08.887Z,15.8
2022-07-27T01:21:19.377Z,15.6
2022-07-27T01:22:20.335Z,15.5
2022-07-27T01:23:15.382Z,15.5
2022-07-27T01:24:16.838Z,15.6
2022-07-27T01:25:14.997Z,15.7
2022-07-27T01:26:18.796Z,15.6
2022-07-27T01:27:30.223Z,15.6
2022-07-27T01:28:07.111Z,15.6
2022-07-27T01:29:14.418Z,15.6
2022-07-27T01:30:15.438Z,15.6
2022-07-27T01:31:17.594Z,15.6
2022-07-27T01:32:19.036Z,15.6
2022-07-27T01:33:15.272Z,15.6
2022-07-27T01:34:18.481Z,15.7
2022-07-27T01:35:17.394Z,15.7
2022-07-27T01:36:17.658Z,15.7
2022-07-27T01:37:14.864Z,15.6
2022-07-27T01:38:14.227Z,15.5
2022-07-27T01:39:16.694Z,15.4
2022-07-27T01:40:14.529Z,15.4
2022-07-27T01:41:15.579Z,15.6
2022-07-27T01:42:15.592Z,15.6
2022-07-27T01:43:15.236Z,15.5
2022-07-27T01:44:16.998Z,15.4
2022-07-27T01:45:13.483Z,15.3
2022-07-27T01:46:17.473Z,15.3
2022-07-27T01:47:18.856Z,15.3
2022-07-27T01:48:15.823Z,15.3
2022-07-27T01:49:14.234Z,15.3
2022-07-27T01:50:17.814Z,15.4
2022-07-27T01:51:16.339Z,15.4
2022-07-27T01:52:20.946Z,15.4
2022-07-27T01:53:15.320Z,15.4
2022-07-27T01:54:15.638Z,15.4
2022-07-27T01:55:19.717Z,15.3
2022-07-27T01:56:09.723Z,15.3
2022-07-27T01:57:07.809Z,15.4
2022-07-27T01:58:17.342Z,15.4
2022-07-27T01:59:21.209Z,15.4
2022-07-27T02:00:17.049Z,15.4
2022-07-27T02:01:16.104Z,15.4
2022-07-27T02:02:14.618Z,15.4
2022-07-27T02:03:15.472Z,15.5
2022-07-27T02:04:17.430Z,15.5
2022-07-27T02:05:18.368Z,15.5
2022-07-27T02:06:18.822Z,15.6
2022-07-27T02:07:14.274Z,15.6
2022-07-27T02:08:15.205Z,15.5
2022-07-27T02:09:15.063Z,15.5
2022-07-27T02:10:16.969Z,15.5
2022-07-27T02:11:16.120Z,15.5
2022-07-27T02:12:16.552Z,15.6
2022-07-27T02:13:26.961Z,15.6
2022-07-27T02:14:15.000Z,15.6
2022-07-27T02:15:20.993Z,15.6
2022-07-27T02:16:22.254Z,15.6
2022-07-27T02:17:17.093Z,15.6
2022-07-27T02:18:39.617Z,15.6
2022-07-27T02:19:16.408Z,15.5
2022-07-27T02:20:16.922Z,15.5
2022-07-27T02:21:19.086Z,15.5
2022-07-27T02:22:15.875Z,15.5
2022-07-27T02:23:18.805Z,15.4
2022-07-27T02:24:14.796Z,15.4
2022-07-27T02:25:16.386Z,15.5
2022-07-27T02:26:20.034Z,15.5
2022-07-27T02:27:15.408Z,15.6
2022-07-27T02:28:14.811Z,15.7
2022-07-27T02:29:17.393Z,15.7
2022-07-27T02:30:20.045Z,15.5
2022-07-27T02:31:17.537Z,15.4
2022-07-27T02:32:15.250Z,15.4
2022-07-27T02:33:15.854Z,15.3
2022-07-27T02:34:15.635Z,15.4
2022-07-27T02:35:24.206Z,15.4
2022-07-27T02:36:19.446Z,15.4
2022-07-27T02:37:18.368Z,15.4
2022-07-27T02:38:15.599Z,15.4
2022-07-27T02:39:18.854Z,15.5
2022-07-27T02:40:18.746Z,15.5
2022-07-27T02:41:14.593Z,15.6
2022-07-27T02:42:19.745Z,15.6
2022-07-27T02:43:15.086Z,15.6
2022-07-27T02:44:14.949Z,15.6
2022-07-27T02:45:20.146Z,15.6
2022-07-27T02:46:18.027Z,15.6
2022-07-27T02:47:15.425Z,15.6
2022-07-27T02:48:14.845Z,15.5
2022-07-27T02:49:17.528Z,15.5
2022-07-27T02:50:18.385Z,15.6
2022-07-27T02:51:15.440Z,15.6
2022-07-27T02:52:17.947Z,15.6
2022-07-27T02:53:13.400Z,15.6
2022-07-27T02:54:22.201Z,15.6
2022-07-27T02:55:14.546Z,15.5
2022-07-27T02:56:20.920Z,15.5
2022-07-27T02:57:14.045Z,15.4
2022-07-27T02:58:15.290Z,15.4
2022-07-27T02:59:15.996Z,15.5
2022-07-27T03:00:15.628Z,15.4
2022-07-27T03:01:15.036Z,15.4
2022-07-27T03:02:17.801Z,15.5
2022-07-27T03:03:08.979Z,15.5
2022-07-27T03:04:22.126Z,15.5
2022-07-27T03:05:14.026Z,15.5
2022-07-27T03:06:18.616Z,15.6
2022-07-27T03:07:16.745Z,15.6
2022-07-27T03:08:13.985Z,15.7
2022-07-27T03:09:16.024Z,15.8
2022-07-27T03:10:18.903Z,15.8
2022-07-27T03:11:14.332Z,15.8
2022-07-27T03:12:18.065Z,15.8
2022-07-27T03:13:14.539Z,15.8
2022-07-27T03:14:19.486Z,15.7
2022-07-27T03:15:16.676Z,15.7
2022-07-27T03:16:13.339Z,15.7
2022-07-27T03:17:16.549Z,15.7
2022-07-27T03:18:14.797Z,15.8
2022-07-27T03:19:16.621Z,15.8
2022-07-27T03:21:15.417Z,15.8
2022-07-27T03:22:18.444Z,15.6
2022-07-27T03:23:10.838Z,15.6
2022-07-27T03:24:21.175Z,15.6
2022-07-27T03:25:16.707Z,15.6
2022-07-27T03:26:14.322Z,15.6
2022-07-27T03:27:19.137Z,15.6
2022-07-27T03:28:12.318Z,15.6
2022-07-27T03:29:19.110Z,15.6
2022-07-27T03:30:13.496Z,15.6
2022-07-27T03:31:17.595Z,15.6
2022-07-27T03:32:18.255Z,15.6
2022-07-27T03:33:18.631Z,15.7
2022-07-27T03:34:14.783Z,15.7
2022-07-27T03:35:15.030Z,15.6
2022-07-27T03:36:16.984Z,15.5
2022-07-27T03:37:17.896Z,15.6
2022-07-27T03:38:15.739Z,15.6
2022-07-27T03:39:19.191Z,15.6
2022-07-27T03:40:15.726Z,15.6
2022-07-27T03:41:14.552Z,15.7
2022-07-27T03:42:16.002Z,15.7
2022-07-27T03:43:13.777Z,15.7
2022-07-27T03:44:16.526Z,15.7
2022-07-27T03:45:16.643Z,15.7
2022-07-27T03:46:13.961Z,15.8
2022-07-27T03:47:16.597Z,15.7
2022-07-27T03:48:15.644Z,15.6
2022-07-27T03:49:19.106Z,15.6
2022-07-27T03:50:15.914Z,15.6
2022-07-27T03:51:16.365Z,15.7
2022-07-27T03:52:21.648Z,15.8
2022-07-27T03:53:15.001Z,15.8
2022-07-27T03:54:13.975Z,15.8
2022-07-27T03:55:18.171Z,15.7
2022-07-27T03:56:15.469Z,15.7
2022-07-27T03:57:17.370Z,15.8
2022-07-27T03:58:17.424Z,15.8
2022-07-27T03:59:16.887Z,15.9
2022-07-27T04:00:18.631Z,15.9
2022-07-27T04:01:16.820Z,15.9
2022-07-27T04:02:10.133Z,15.9
2022-07-27T04:03:14.781Z,15.9
2022-07-27T04:04:14.804Z,15.9
2022-07-27T04:05:15.356Z,15.9
2022-07-27T04:06:15.407Z,15.9
2022-07-27T04:07:16.022Z,15.9
2022-07-27T04:08:15.096Z,15.9
2022-07-27T04:09:19.103Z,15.9
2022-07-27T04:10:12.199Z,15.9
2022-07-27T04:11:20.931Z,15.9
2022-07-27T04:12:14.702Z,15.9
2022-07-27T04:13:23.733Z,16
2022-07-27T04:14:17.030Z,16
2022-07-27T04:15:15.978Z,16
2022-07-27T04:16:16.512Z,15.9
2022-07-27T04:17:57.443Z,15.8
2022-07-27T04:18:13.006Z,15.8
2022-07-27T04:19:16.172Z,15.8
2022-07-27T04:20:16.848Z,15.8
2022-07-27T04:21:13.680Z,15.8
2022-07-27T04:22:16.417Z,15.8
2022-07-27T04:23:14.801Z,15.8
2022-07-27T04:24:16.456Z,15.9
2022-07-27T04:25:21.316Z,16
2022-07-27T04:26:07.403Z,16
2022-07-27T04:27:16.105Z,16
2022-07-27T04:28:18.527Z,16
2022-07-27T04:29:24.996Z,16.1
2022-07-27T04:30:21.640Z,16.2
2022-07-27T04:31:18.156Z,16.1
2022-07-27T04:32:07.958Z,16.2
2022-07-27T04:33:15.516Z,16.2
2022-07-27T04:34:16.394Z,16.2
2022-07-27T04:35:20.268Z,16
2022-07-27T04:36:13.267Z,16
2022-07-27T04:37:16.179Z,16
2022-07-27T04:38:15.753Z,16
2022-07-27T04:39:17.315Z,15.9
2022-07-27T04:40:13.425Z,15.9
2022-07-27T04:41:20.568Z,16
2022-07-27T04:42:18.080Z,15.9
2022-07-27T04:43:16.467Z,15.9
2022-07-27T04:44:13.072Z,15.9
2022-07-27T04:45:16.922Z,16
2022-07-27T04:46:19.542Z,16
2022-07-27T04:47:14.595Z,16
2022-07-27T04:48:14.878Z,16.1
2022-07-27T04:49:16.589Z,16.1
2022-07-27T04:50:16.053Z,16.1
2022-07-27T04:51:14.267Z,16.1
2022-07-27T04:52:16.159Z,16.1
2022-07-27T04:53:14.828Z,16.2
2022-07-27T04:54:14.461Z,16.2
2022-07-27T04:55:16.643Z,16.3
2022-07-27T04:56:13.856Z,16.3
2022-07-27T04:57:13.771Z,16.3
2022-07-27T04:58:15.653Z,16.3
2022-07-27T04:59:16.373Z,16.4
2022-07-27T05:00:16.402Z,16.3
2022-07-27T05:01:18.696Z,16.4
2022-07-27T05:02:19.611Z,16.4
2022-07-27T05:03:12.952Z,16.5
2022-07-27T05:04:17.789Z,16.5
2022-07-27T05:05:16.476Z,16.6
2022-07-27T05:06:19.495Z,16.7
2022-07-27T05:07:13.945Z,16.7
2022-07-27T05:08:20.058Z,16.9
2022-07-27T05:09:26.409Z,16.9
2022-07-27T05:10:13.414Z,17
2022-07-27T05:11:16.490Z,17.1
2022-07-27T05:12:15.309Z,17.1
2022-07-27T05:13:14.496Z,17.1
2022-07-27T05:14:15.304Z,17.1
2022-07-27T05:15:15.007Z,17
2022-07-27T05:16:16.358Z,17
2022-07-27T05:17:14.498Z,16.9
2022-07-27T05:18:14.163Z,17.1
2022-07-27T05:19:15.468Z,17.1
2022-07-27T05:20:19.324Z,17.1
2022-07-27T05:21:20.170Z,17.1
2022-07-27T05:22:15.793Z,17.1
2022-07-27T05:23:15.692Z,17.1
2022-07-27T05:24:19.145Z,17.2
2022-07-27T05:25:15.891Z,17.2
2022-07-27T05:26:12.166Z,17.2
2022-07-27T05:27:15.962Z,17.2
2022-07-27T05:28:13.143Z,17.2
2022-07-27T05:29:16.760Z,17.2
2022-07-27T05:30:18.039Z,17.3
2022-07-27T05:31:07.586Z,17.3
2022-07-27T05:32:11.552Z,17.2
2022-07-27T05:33:14.083Z,17.2
2022-07-27T05:34:17.958Z,17.2
2022-07-27T05:35:13.418Z,17.3
2022-07-27T05:36:17.872Z,17.3
2022-07-27T05:37:13.290Z,17.4
2022-07-27T05:38:18.311Z,17.4
2022-07-27T05:39:23.677Z,17.5
2022-07-27T05:40:09.293Z,17.5
2022-07-27T05:41:19.055Z,17.5
2022-07-27T05:42:14.731Z,17.6
2022-07-27T05:43:17.949Z,17.6
2022-07-27T05:44:14.871Z,17.5
2022-07-27T05:45:24.309Z,17.6
2022-07-27T05:46:07.958Z,17.6
2022-07-27T05:47:15.908Z,17.6
2022-07-27T05:48:14.422Z,17.6
2022-07-27T05:49:19.531Z,17.7
2022-07-27T05:50:17.687Z,17.7
2022-07-27T05:51:20.374Z,17.7
2022-07-27T05:52:16.926Z,17.7
2022-07-27T05:53:16.055Z,17.6
2022-07-27T05:54:16.727Z,17.7
2022-07-27T05:55:14.447Z,17.6
2022-07-27T05:56:17.068Z,17.7
2022-07-27T05:57:13.854Z,17.7
2022-07-27T05:58:17.041Z,17.7
2022-07-27T05:59:15.876Z,17.7
2022-07-27T06:00:16.214Z,17.8
2022-07-27T06:01:15.388Z,17.9
2022-07-27T06:02:17.889Z,18
2022-07-27T06:03:15.769Z,18
2022-07-27T06:04:20.111Z,17.8
2022-07-27T06:05:20.068Z,17.8
2022-07-27T06:06:18.946Z,17.9
2022-07-27T06:07:15.835Z,17.9
2022-07-27T06:08:14.854Z,17.9
2022-07-27T06:09:18.394Z,17.9
2022-07-27T06:10:17.021Z,18
2022-07-27T06:11:15.500Z,18
2022-07-27T06:12:17.206Z,17.9
2022-07-27T06:13:16.619Z,17.9
2022-07-27T06:14:14.777Z,17.9
2022-07-27T06:15:16.998Z,18
2022-07-27T06:16:18.738Z,18
2022-07-27T06:17:17.072Z,18
2022-07-27T06:18:14.888Z,18
2022-07-27T06:19:15.234Z,18.1
2022-07-27T06:20:17.007Z,18.1
2022-07-27T06:21:16.539Z,18.1
2022-07-27T06:22:13.391Z,18.1
2022-07-27T06:23:18.859Z,18.2
2022-07-27T06:24:15.664Z,18.3
2022-07-27T06:25:15.530Z,18.3
2022-07-27T06:26:14.393Z,18.3
2022-07-27T06:27:16.090Z,18.3
2022-07-27T06:28:14.686Z,18.3
2022-07-27T06:29:18.019Z,18.3
2022-07-27T06:30:18.280Z,18.4
2022-07-27T06:31:18.475Z,18.4
2022-07-27T06:32:16.125Z,18.4
2022-07-27T06:33:15.769Z,18.6
2022-07-27T06:34:16.876Z,18.6
2022-07-27T06:35:16.816Z,18.7
2022-07-27T06:36:16.838Z,18.9
2022-07-27T06:37:16.646Z,18.9
2022-07-27T06:38:16.222Z,18.9
2022-07-27T06:39:21.592Z,19.1
2022-07-27T06:40:08.081Z,19.3
2022-07-27T06:41:17.960Z,19.3
2022-07-27T06:42:16.803Z,19.9
2022-07-27T06:43:17.540Z,19.9
2022-07-27T06:44:16.472Z,19.9
2022-07-27T06:45:16.426Z,19.9
2022-07-27T06:46:24.370Z,20.3
2022-07-27T06:47:16.401Z,20.3
2022-07-27T06:48:18.349Z,20.3
2022-07-27T06:49:15.782Z,20.3
2022-07-27T06:50:14.950Z,20.2
2022-07-27T06:51:15.750Z,20.4
2022-07-27T06:52:12.792Z,20.6
2022-07-27T06:53:16.584Z,20.6
2022-07-27T06:54:13.315Z,20.5
2022-07-27T06:55:19.197Z,20.5
2022-07-27T06:56:15.646Z,20.2
2022-07-27T06:57:15.289Z,20.1
2022-07-27T06:58:14.751Z,20
2022-07-27T06:59:16.342Z,19.9
2022-07-27T07:00:15.756Z,19.9
2022-07-27T07:01:17.041Z,19.9
2022-07-27T07:02:16.585Z,19.8
2022-07-27T07:03:15.451Z,19.8
2022-07-27T07:04:14.658Z,19.8
2022-07-27T07:05:14.901Z,19.8
2022-07-27T07:06:16.782Z,19.8
2022-07-27T07:07:16.501Z,19.8
2022-07-27T07:08:18.173Z,19.8
2022-07-27T07:09:20.917Z,19.8
2022-07-27T07:10:06.734Z,19.8
2022-07-27T07:11:20.161Z,19.8
2022-07-27T07:12:14.714Z,19.8
2022-07-27T07:13:31.305Z,19.7
2022-07-27T07:14:07.420Z,19.8
2022-07-27T07:15:21.115Z,19.8
2022-07-27T07:16:16.140Z,19.8
2022-07-27T07:17:15.432Z,19.8
2022-07-27T07:18:13.297Z,19.9
2022-07-27T07:19:16.361Z,19.9
2022-07-27T07:20:18.333Z,19.8
2022-07-27T07:21:17.985Z,19.9
2022-07-27T07:22:18.645Z,19.9
2022-07-27T07:23:15.387Z,20
2022-07-27T07:24:20.145Z,19.9
2022-07-27T07:25:14.847Z,20
2022-07-27T07:26:06.673Z,20.1
2022-07-27T07:27:14.499Z,20.1
2022-07-27T07:28:15.207Z,20.8
2022-07-27T07:29:16.164Z,20.9
2022-07-27T07:30:14.623Z,21.1
2022-07-27T07:31:14.935Z,21.1
2022-07-27T07:32:16.458Z,21.2
2022-07-27T07:33:17.496Z,21.1
2022-07-27T07:34:21.053Z,21.1
2022-07-27T07:35:14.421Z,21.6
2022-07-27T07:36:18.977Z,21.8
2022-07-27T07:37:07.135Z,21.8
2022-07-27T07:38:20.659Z,22.1
2022-07-27T07:39:18.247Z,22.1
2022-07-27T07:40:47.689Z,22.1
2022-07-27T07:41:12.413Z,21.9
2022-07-27T07:42:16.842Z,21.9
2022-07-27T07:43:18.567Z,21.9
2022-07-27T07:44:16.222Z,21.9
2022-07-27T07:45:16.087Z,21.7
2022-07-27T07:46:15.891Z,21.7
2022-07-27T07:47:12.194Z,21.9
2022-07-27T07:48:15.734Z,21.8
2022-07-27T07:49:15.319Z,21.8
2022-07-27T07:50:16.034Z,21.8
2022-07-27T07:51:13.883Z,21.4
2022-07-27T07:52:13.883Z,21.4
2022-07-27T07:53:18.401Z,21.4
2022-07-27T07:54:18.656Z,21.4
2022-07-27T07:55:13.763Z,21.5
2022-07-27T07:56:13.040Z,21.6
2022-07-27T07:57:17.275Z,21.6
2022-07-27T07:58:13.399Z,21.9
2022-07-27T07:59:20.249Z,21.9
2022-07-27T08:00:14.688Z,22.2
2022-07-27T08:01:19.807Z,22.3
2022-07-27T08:02:16.449Z,22.3
2022-07-27T08:03:16.786Z,22.5
2022-07-27T08:04:14.489Z,22.5
2022-07-27T08:05:16.097Z,22.4
2022-07-27T08:06:10.397Z,22.4
2022-07-27T08:07:16.680Z,22.3
2022-07-27T08:08:17.763Z,21.9
2022-07-27T08:09:19.184Z,21.9
2022-07-27T08:10:15.481Z,21.9
2022-07-27T08:11:13.654Z,21.6
2022-07-27T08:12:14.770Z,21.6
2022-07-27T08:13:24.786Z,21.6
2022-07-27T08:14:15.487Z,21.5
2022-07-27T08:15:17.149Z,21.3
2022-07-27T08:16:14.529Z,21.3
2022-07-27T08:17:16.699Z,21.3
2022-07-27T08:18:15.732Z,21.3
2022-07-27T08:19:14.051Z,21.3
2022-07-27T08:20:15.556Z,21.3
2022-07-27T08:21:15.535Z,21.6
2022-07-27T08:22:19.298Z,21.6
2022-07-27T08:23:17.870Z,21.6
2022-07-27T08:24:07.655Z,21.6
2022-07-27T08:25:16.816Z,22.1
2022-07-27T08:26:16.080Z,22.2
2022-07-27T08:27:15.865Z,22.4
2022-07-27T08:28:14.637Z,22.4
2022-07-27T08:29:25.139Z,22.6
2022-07-27T08:30:19.908Z,22.5
2022-07-27T08:31:26.670Z,22.5
2022-07-27T08:32:16.469Z,22.6
2022-07-27T08:33:15.740Z,22.8
2022-07-27T08:34:15.388Z,23
2022-07-27T08:35:19.761Z,23
2022-07-27T08:36:18.270Z,23.2
2022-07-27T08:37:19.751Z,23.2
2022-07-27T08:38:16.785Z,23.4
2022-07-27T08:40:44.653Z,23.3
2022-07-27T08:40:47.624Z,23.1
2022-07-27T08:41:16.353Z,23
2022-07-27T08:42:16.797Z,23
2022-07-27T08:43:17.546Z,23
2022-07-27T08:44:14.701Z,22.8
2022-07-27T08:45:20.291Z,22.8
2022-07-27T08:46:15.034Z,22.8
2022-07-27T08:47:12.470Z,22.8
2022-07-27T08:48:16.274Z,22.6
2022-07-27T08:49:19.953Z,22.6
2022-07-27T08:50:12.824Z,22.6
2022-07-27T08:51:14.893Z,22.6
2022-07-27T08:52:13.564Z,22.6
2022-07-27T08:53:10.987Z,22.5
2022-07-27T08:54:15.764Z,22.6
2022-07-27T08:55:14.816Z,22.9
2022-07-27T08:56:14.551Z,23
2022-07-27T08:57:17.103Z,23.5
2022-07-27T08:58:08.597Z,23.5
2022-07-27T08:59:22.265Z,23.5
2022-07-27T09:00:15.743Z,23.1
2022-07-27T09:01:21.922Z,22.8
2022-07-27T09:02:15.777Z,22.7
2022-07-27T09:03:24.978Z,22.6
2022-07-27T09:04:14.201Z,22.6
2022-07-27T09:05:18.780Z,22.8
2022-07-27T09:06:15.382Z,22.8
2022-07-27T09:07:14.294Z,22.8
2022-07-27T09:08:17.358Z,22.9
2022-07-27T09:09:16.147Z,22.9
2022-07-27T09:10:16.469Z,22.8
2022-07-27T09:11:17.415Z,22.8
2022-07-27T09:12:15.305Z,22.8
2022-07-27T09:13:16.083Z,23.2
2022-07-27T09:14:15.473Z,23.2
2022-07-27T09:15:15.032Z,23.4
2022-07-27T09:16:23.596Z,23.5
2022-07-27T09:17:56.155Z,23.5
2022-07-27T09:18:18.150Z,23.5
2022-07-27T09:19:19.458Z,23.5
2022-07-27T09:20:21.952Z,23.5
2022-07-27T09:21:21.568Z,23.6
2022-07-27T09:22:10.806Z,23.6
2022-07-27T09:23:16.917Z,23.3
2022-07-27T09:24:50.000Z,23.8
2022-07-27T09:25:14.245Z,23.8
2022-07-27T09:26:34.463Z,23.8
2022-07-27T09:27:13.257Z,23.8
2022-07-27T09:28:23.488Z,24
2022-07-27T09:29:18.881Z,24.1
2022-07-27T09:30:14.952Z,24.1
2022-07-27T09:31:18.823Z,24
2022-07-27T09:32:23.100Z,23.9
2022-07-27T09:33:14.906Z,24.1
2022-07-27T09:34:18.591Z,24.1
2022-07-27T09:35:13.701Z,24.6
2022-07-27T09:36:15.394Z,24.6
2022-07-27T09:37:11.369Z,24.8
2022-07-27T09:38:17.824Z,24.6
2022-07-27T09:39:17.285Z,24.8
2022-07-27T09:40:17.687Z,24.8
2022-07-27T09:41:17.553Z,24.8
2022-07-27T09:43:23.745Z,24.8
2022-07-27T09:44:47.480Z,24.7
2022-07-27T09:44:49.373Z,24.6
2022-07-27T09:46:15.068Z,24.9
2022-07-27T09:47:19.389Z,24.6
2022-07-27T09:48:14.189Z,24.5
2022-07-27T09:49:18.425Z,24.4
2022-07-27T09:50:17.003Z,24.2
2022-07-27T09:52:03.937Z,24.4
2022-07-27T09:52:12.450Z,24.6
2022-07-27T09:53:46.350Z,24.7
2022-07-27T09:54:18.501Z,24.6
2022-07-27T09:55:13.939Z,24.4
2022-07-27T09:56:05.979Z,24.6
2022-07-27T09:57:15.620Z,24.6
2022-07-27T09:58:19.722Z,24.8
2022-07-27T09:59:15.108Z,24.9
2022-07-27T10:00:15.844Z,25.1
2022-07-27T10:01:16.241Z,25.1
2022-07-27T10:02:17.499Z,24.8
2022-07-27T10:03:13.945Z,24.8
2022-07-27T10:04:20.078Z,25
2022-07-27T10:05:18.577Z,24.9
2022-07-27T10:06:15.689Z,24.9
2022-07-27T10:07:17.113Z,24.7
2022-07-27T10:08:16.057Z,24.6
2022-07-27T10:09:19.177Z,24.6
2022-07-27T10:10:10.495Z,24.6
2022-07-27T10:11:18.648Z,24.2
2022-07-27T10:12:12.027Z,24.2
2022-07-27T10:13:15.209Z,24.1
2022-07-27T10:14:17.461Z,24.2
2022-07-27T10:15:15.233Z,24.2
2022-07-27T10:16:19.684Z,24.2
2022-07-27T10:17:13.078Z,24.5
2022-07-27T10:18:14.118Z,24.4
2022-07-27T10:19:16.427Z,24.4
2022-07-27T10:20:17.276Z,24.4
2022-07-27T10:21:18.556Z,24.3
2022-07-27T10:22:10.586Z,24.3
2022-07-27T10:23:11.442Z,24.4
2022-07-27T10:24:19.733Z,24.3
2022-07-27T10:25:20.542Z,24.3
2022-07-27T10:26:17.050Z,24.2
2022-07-27T10:27:14.606Z,24.4
2022-07-27T10:28:18.784Z,24.5
2022-07-27T10:29:18.643Z,24.5
2022-07-27T10:30:27.765Z,24.5
2022-07-27T10:31:11.749Z,24.5
2022-07-27T10:32:16.204Z,24.3
2022-07-27T10:33:18.349Z,24.3
2022-07-27T10:34:15.819Z,24.2
2022-07-27T10:35:17.243Z,24.2
2022-07-27T10:36:20.581Z,24.3
2022-07-27T10:37:14.895Z,24.4
2022-07-27T10:38:14.877Z,24.4
2022-07-27T10:39:24.220Z,24.8
2022-07-27T10:40:07.338Z,24.8
2022-07-27T10:41:18.122Z,25.2
2022-07-27T10:42:16.065Z,25.1
2022-07-27T10:43:15.941Z,25.1
2022-07-27T10:44:15.418Z,25.3
2022-07-27T10:45:17.153Z,25.2
2022-07-27T10:46:14.671Z,25.4
2022-07-27T10:47:16.792Z,25.5
2022-07-27T10:48:14.272Z,25.4
2022-07-27T10:49:15.709Z,25.4
2022-07-27T10:50:16.925Z,25.8
2022-07-27T10:51:15.239Z,25.4
2022-07-27T10:52:12.925Z,25.5
2022-07-27T10:53:15.839Z,25.5
2022-07-27T10:54:19.994Z,25.5
2022-07-27T10:55:15.424Z,25.5
2022-07-27T10:56:16.954Z,25.4
2022-07-27T10:57:14.443Z,25.4
2022-07-27T10:58:16.181Z,25.4
2022-07-27T10:59:13.954Z,25.4
2022-07-27T11:00:22.042Z,25.3
2022-07-27T11:01:20.032Z,25.3
2022-07-27T11:02:13.948Z,24.9
2022-07-27T11:03:18.548Z,24.8
2022-07-27T11:04:22.095Z,24.5
2022-07-27T11:05:07.361Z,24.5
2022-07-27T11:07:23.873Z,24.6
2022-07-27T11:07:52.596Z,24.8
2022-07-27T11:08:56.210Z,24.8
2022-07-27T11:10:06.787Z,24.8
2022-07-27T11:10:14.230Z,24.8
2022-07-27T11:11:16.146Z,24.8
2022-07-27T11:12:14.311Z,24.8
2022-07-27T11:13:14.350Z,24.8
2022-07-27T11:14:12.957Z,25
2022-07-27T11:15:14.088Z,25
2022-07-27T11:16:30.462Z,25
2022-07-27T11:18:05.083Z,25
2022-07-27T11:18:19.619Z,25
2022-07-27T11:19:17.423Z,24.9
2022-07-27T11:20:17.471Z,24.9
2022-07-27T11:21:20.428Z,24.9
2022-07-27T11:23:53.406Z,24.9
2022-07-27T11:24:16.157Z,24.9
2022-07-27T11:25:14.592Z,24.6
2022-07-27T11:26:17.936Z,24.6
2022-07-27T11:27:27.030Z,24.6
2022-07-27T11:28:18.290Z,25
2022-07-27T11:29:16.492Z,25.2
2022-07-27T11:30:16.692Z,25
2022-07-27T11:31:20.008Z,25
2022-07-27T11:32:21.239Z,24.9
2022-07-27T11:33:07.697Z,24.9
2022-07-27T11:34:14.502Z,24.9
2022-07-27T11:35:23.912Z,24.8
2022-07-27T11:36:14.197Z,24.7
2022-07-27T11:37:20.477Z,24.8
2022-07-27T11:38:07.315Z,24.8
2022-07-27T11:40:04.249Z,24.8
2022-07-27T11:41:13.485Z,24.8
2022-07-27T11:42:18.835Z,24.8
2022-07-27T11:42:25.356Z,24.6
2022-07-27T11:43:19.620Z,24.7
2022-07-27T11:44:19.978Z,24.6
2022-07-27T11:45:13.427Z,24.5
2022-07-27T11:46:16.984Z,24.5
2022-07-27T11:47:16.641Z,24.5
2022-07-27T11:48:12.447Z,24.5
2022-07-27T11:49:18.582Z,24.3
2022-07-27T11:50:18.391Z,24.3
2022-07-27T11:51:15.605Z,24.3
2022-07-27T11:52:19.030Z,24.4
2022-07-27T11:53:16.502Z,24.4
2022-07-27T11:54:20.946Z,24.5
2022-07-27T11:55:17.076Z,24.4
2022-07-27T11:56:16.870Z,24.4
2022-07-27T11:57:16.686Z,24.4
2022-07-27T11:58:14.467Z,24.4
2022-07-27T11:59:14.658Z,24.5
2022-07-27T12:00:16.195Z,25.1
2022-07-27T12:01:13.850Z,25.1
2022-07-27T12:02:20.736Z,25.1
2022-07-27T12:03:07.311Z,25.2
2022-07-27T12:04:18.382Z,25.2
2022-07-27T12:05:15.272Z,25.6
2022-07-27T12:06:08.288Z,25.6
2022-07-27T12:07:20.418Z,25.4
2022-07-27T12:08:13.125Z,25.3
2022-07-27T12:09:18.923Z,25.3
2022-07-27T12:10:12.038Z,25.3
2022-07-27T12:11:17.916Z,25.1
2022-07-27T12:12:16.371Z,25.1
2022-07-27T12:13:18.852Z,25.3
2022-07-27T12:14:15.631Z,25.6
2022-07-27T12:15:49.187Z,25.6
2022-07-27T12:16:20.569Z,25.8
2022-07-27T12:17:13.961Z,25.8
2022-07-27T12:18:16.438Z,25.8
2022-07-27T12:19:18.980Z,25.8
2022-07-27T12:20:16.852Z,25.8
2022-07-27T12:21:16.286Z,25.7
2022-07-27T12:22:15.043Z,25.7
2022-07-27T12:23:18.510Z,25.3
2022-07-27T12:24:17.050Z,24.9
2022-07-27T12:25:20.806Z,24.9
2022-07-27T12:26:18.147Z,24.7
2022-07-27T12:27:15.336Z,24.7
2022-07-27T12:28:13.906Z,24.8
2022-07-27T12:29:16.316Z,24.8
2022-07-27T12:30:22.117Z,24.9
2022-07-27T12:31:15.899Z,24.9
2022-07-27T12:32:17.061Z,24.9
2022-07-27T12:33:17.157Z,25.3
2022-07-27T12:34:15.478Z,25.3
2022-07-27T12:35:17.811Z,25.3
2022-07-27T12:36:12.833Z,25.5
2022-07-27T12:37:17.982Z,25.5
2022-07-27T12:38:14.231Z,25.5
2022-07-27T12:39:19.185Z,25.4
2022-07-27T12:40:16.050Z,25.2
2022-07-27T12:41:18.256Z,25.1
2022-07-27T12:42:18.632Z,25.1
2022-07-27T12:43:17.477Z,25.1
2022-07-27T12:44:16.051Z,25.1
2022-07-27T12:45:16.655Z,25.4
2022-07-27T12:46:13.939Z,25.6
2022-07-27T12:47:11.679Z,25.4
2022-07-27T12:48:13.153Z,25.4
2022-07-27T12:49:17.994Z,25.3
2022-07-27T12:50:12.776Z,25.4
2022-07-27T12:51:16.243Z,25.4
2022-07-27T12:52:14.072Z,25.3
2022-07-27T12:53:13.429Z,25.1
2022-07-27T12:54:15.877Z,24.9
2022-07-27T12:55:19.879Z,24.9
2022-07-27T12:56:29.025Z,24.8
2022-07-27T12:57:12.051Z,24.8
2022-07-27T12:58:14.402Z,24.6
2022-07-27T12:59:18.664Z,24.6
2022-07-27T13:00:16.168Z,24.7
2022-07-27T13:01:18.519Z,24.7
2022-07-27T13:02:14.209Z,24.7
2022-07-27T13:03:13.199Z,24.8
2022-07-27T13:04:13.786Z,24.8
2022-07-27T13:05:15.985Z,24.9
2022-07-27T13:06:17.427Z,24.9
2022-07-27T13:07:13.023Z,24.7
2022-07-27T13:08:09.370Z,24.7
2022-07-27T13:09:23.337Z,24.8
2022-07-27T13:10:14.591Z,24.8
2022-07-27T13:11:17.993Z,24.7
2022-07-27T13:12:17.160Z,25.1
2022-07-27T13:13:13.959Z,25.4
2022-07-27T13:14:16.254Z,25.4
2022-07-27T13:15:15.978Z,25.3
2022-07-27T13:16:15.212Z,25.2
2022-07-27T13:17:17.990Z,25.1
2022-07-27T13:18:27.577Z,25.1
2022-07-27T13:19:17.993Z,25.1
2022-07-27T13:20:20.734Z,24.9
2022-07-27T13:21:16.555Z,24.9
2022-07-27T13:22:18.282Z,24.9
2022-07-27T13:23:13.292Z,24.9
2022-07-27T13:24:14.329Z,24.9